Time;durP1;ratioP1;P1;durP2;ratioP2;P2;SDS_P1;SDS_P2;PMS_P1;PMS_P2;Temp;Humidity;BMP_temperature;BMP_pressure;BME280_temperature;BME280_humidity;BME280_pressure;Samples;Min_cycle;Max_cycle;Signal;HPM_P1;HPM_P2
2022/07/16 00:03:15;;;;;;;6.90;3.30;;;;;;;18.89;55.34;100522.00;5115204;28;20142;-59
2022/07/16 00:06:10;;;;;;;5.72;3.20;;;;;;;18.90;55.32;100523.72;5132160;27;20195;-59
2022/07/16 00:08:55;;;;;;;5.25;2.97;;;;;;;18.89;55.39;100525.47;5131882;28;20050;-59
2022/07/16 00:11:39;;;;;;;7.18;3.53;;;;;;;18.89;55.35;100527.25;5116660;28;20070;-59
2022/07/16 00:14:23;;;;;;;7.00;3.10;;;;;;;18.89;55.37;100527.25;5131430;28;20050;-59
2022/07/16 00:17:09;;;;;;;7.78;3.10;;;;;;;18.86;55.30;100518.50;5131627;28;20042;-59
2022/07/16 00:19:54;;;;;;;5.82;2.83;;;;;;;18.87;55.35;100521.97;5131425;28;20046;-60
2022/07/16 00:22:38;;;;;;;5.13;2.50;;;;;;;18.88;55.52;100521.09;5132021;28;20055;-59
2022/07/16 00:25:21;;;;;;;3.75;2.60;;;;;;;18.87;55.36;100521.97;5116247;28;20092;-59
2022/07/16 00:28:08;;;;;;;5.43;2.65;;;;;;;18.86;55.32;100523.75;5131038;28;20055;-59
2022/07/16 00:30:52;;;;;;;6.05;3.30;;;;;;;18.86;55.54;100523.75;5131221;28;20050;-58
2022/07/16 00:33:36;;;;;;;5.15;3.05;;;;;;;18.86;55.36;100522.88;5131490;28;20050;-58
2022/07/16 00:38:31;;;;;;;6.45;2.88;;;;;;;18.82;55.38;100511.53;5111697;27;20249;-59
2022/07/16 00:41:18;;;;;;;4.22;3.10;;;;;;;18.82;55.42;100511.53;5111055;28;20405;-58
2022/07/16 00:44:05;;;;;;;6.45;2.70;;;;;;;18.82;55.26;100510.69;5110140;28;20046;-58
2022/07/16 00:46:50;;;;;;;4.30;2.92;;;;;;;18.81;55.67;100509.78;5110078;28;20051;-58
2022/07/16 00:49:34;;;;;;;6.00;3.00;;;;;;;18.79;55.48;100501.06;5110180;28;20039;-58
2022/07/16 00:52:18;;;;;;;4.85;2.90;;;;;;;18.78;55.57;100495.84;5110986;28;20039;-58
2022/07/16 00:55:04;;;;;;;8.00;3.28;;;;;;;18.78;55.52;100501.94;5111407;28;20468;-58
2022/07/16 00:57:47;;;;;;;6.55;3.03;;;;;;;18.78;55.50;100501.09;5110926;28;20082;-58
2022/07/16 01:00:31;;;;;;;4.80;3.17;;;;;;;18.78;55.42;100501.09;5110562;28;20521;-58
2022/07/16 01:03:15;;;;;;;4.85;2.90;;;;;;;18.78;55.62;100504.56;5111268;28;20564;-58
2022/07/16 01:06:00;;;;;;;4.65;3.25;;;;;;;18.77;55.47;100497.56;5111470;28;20124;-60
2022/07/16 01:08:47;;;;;;;5.88;3.42;;;;;;;18.77;55.53;100497.56;5111050;28;20075;-60
2022/07/16 01:11:33;;;;;;;4.80;2.60;;;;;;;18.76;55.50;100498.50;5109926;28;20066;-60
2022/07/16 01:14:18;;;;;;;4.35;2.88;;;;;;;18.76;55.54;100505.47;5110102;28;20548;-59
2022/07/16 01:17:05;;;;;;;4.38;3.08;;;;;;;18.75;55.51;100499.38;5109686;28;20050;-60
2022/07/16 01:19:51;;;;;;;6.00;3.30;;;;;;;18.74;55.24;100495.00;5110226;28;20150;-58
2022/07/16 01:22:36;;;;;;;4.38;3.00;;;;;;;18.74;55.49;100499.38;5109399;28;20050;-59
2022/07/16 01:25:20;;;;;;;5.97;3.05;;;;;;;18.72;55.75;100497.63;5110748;28;20061;-59
2022/07/16 01:28:04;;;;;;;4.10;3.03;;;;;;;18.72;55.33;100496.78;5109726;28;20520;-58
2022/07/16 01:30:49;;;;;;;3.50;2.65;;;;;;;18.74;55.43;100494.13;5110473;28;20104;-58
2022/07/16 01:33:39;;;;;;;4.15;3.00;;;;;;;18.73;55.36;100501.16;5109495;28;20043;-59
2022/07/16 01:36:23;;;;;;;5.85;2.83;;;;;;;18.73;55.44;100493.28;5109299;28;20081;-60
2022/07/16 01:39:07;;;;;;;5.05;3.17;;;;;;;18.74;55.69;100492.38;5109370;28;20039;-60
2022/07/16 01:41:56;;;;;;;7.28;3.22;;;;;;;18.72;55.59;100502.88;5109900;28;20054;-59
2022/07/16 01:44:40;;;;;;;7.45;2.85;;;;;;;18.72;55.60;100500.25;5109166;28;20128;-59
2022/07/16 01:47:24;;;;;;;6.45;3.10;;;;;;;18.71;55.53;100495.03;5110397;28;20127;-59
2022/07/16 01:50:08;;;;;;;4.60;2.60;;;;;;;18.70;55.83;100504.66;5095223;28;20043;-59
2022/07/16 01:52:52;;;;;;;6.78;3.40;;;;;;;18.70;55.48;100503.78;5096228;28;20054;-59
2022/07/16 01:55:37;;;;;;;4.38;3.30;;;;;;;18.68;55.61;100509.06;5096444;28;20078;-60
2022/07/16 01:58:24;;;;;;;4.38;2.42;;;;;;;18.69;55.38;100510.78;5096157;28;20051;-60
2022/07/16 02:01:08;;;;;;;5.13;3.20;;;;;;;18.67;55.58;100507.34;5096024;28;20043;-59
2022/07/16 02:03:58;;;;;;;5.80;2.92;;;;;;;18.66;55.69;100507.31;5096560;28;20105;-60
2022/07/16 02:06:45;;;;;;;6.32;3.13;;;;;;;18.67;55.58;100511.69;5096301;28;20533;-59
2022/07/16 02:09:30;;;;;;;4.63;2.83;;;;;;;18.67;55.62;100506.44;5096221;28;20051;-60
2022/07/16 02:12:14;;;;;;;5.60;2.80;;;;;;;18.66;55.51;100502.06;5095626;28;20047;-60
2022/07/16 02:14:58;;;;;;;5.03;2.90;;;;;;;18.65;55.85;100503.84;5096050;28;20043;-59
2022/07/16 02:17:42;;;;;;;5.22;2.97;;;;;;;18.65;55.51;100500.34;5095712;28;20565;-59
2022/07/16 02:20:26;;;;;;;6.13;3.28;;;;;;;18.64;55.59;100498.59;5095783;28;20406;-59
2022/07/16 02:23:10;;;;;;;7.50;3.33;;;;;;;18.64;55.81;100495.97;5095892;28;20070;-60
2022/07/16 02:25:57;;;;;;;4.22;3.03;;;;;;;18.64;55.71;100495.97;5094988;28;20051;-59
2022/07/16 02:28:41;;;;;;;4.43;2.80;;;;;;;18.63;55.99;100499.47;5096038;28;20055;-59
2022/07/16 02:31:24;;;;;;;5.38;3.17;;;;;;;18.63;55.67;100502.09;5095018;28;20105;-60
2022/07/16 02:34:08;;;;;;;3.50;3.10;;;;;;;18.62;55.86;100503.00;5095415;28;20046;-60
2022/07/16 02:36:52;;;;;;;5.35;3.00;;;;;;;18.61;55.65;100493.41;5095556;28;20117;-59
2022/07/16 02:39:37;;;;;;;7.03;3.00;;;;;;;18.60;55.83;100496.91;5095064;28;20047;-60
2022/07/16 02:42:21;;;;;;;9.23;3.28;;;;;;;18.58;55.82;100496.91;5094707;28;20138;-59
2022/07/16 02:45:07;;;;;;;6.55;3.35;;;;;;;18.59;55.82;100496.03;5095696;28;20051;-59
2022/07/16 02:47:54;;;;;;;5.75;2.83;;;;;;;18.58;55.87;100491.66;5094657;28;20090;-60
2022/07/16 02:50:39;;;;;;;3.83;3.00;;;;;;;18.58;55.78;100493.44;5095491;28;20403;-59
2022/07/16 02:53:23;;;;;;;5.95;3.15;;;;;;;18.55;55.82;100492.56;5094273;28;20082;-60
2022/07/16 02:56:07;;;;;;;5.07;2.80;;;;;;;18.55;55.71;100495.19;5095414;28;20154;-60
2022/07/16 02:58:51;;;;;;;3.47;2.38;;;;;;;18.53;55.67;100494.34;5095293;28;20193;-60
2022/07/16 03:01:35;;;;;;;6.43;3.08;;;;;;;18.52;55.92;100494.38;5093706;28;20043;-59
2022/07/16 03:04:19;;;;;;;7.28;3.35;;;;;;;18.51;55.65;100496.09;5094917;28;20051;-59
2022/07/16 03:07:03;;;;;;;4.47;3.08;;;;;;;18.50;55.93;100494.34;5094813;28;20134;-58
2022/07/16 03:09:47;;;;;;;7.47;3.58;;;;;;;18.48;55.84;100501.38;5095072;28;20608;-59
2022/07/16 03:12:31;;;;;;;4.32;2.88;;;;;;;18.48;55.78;100506.63;5093864;28;20066;-58
2022/07/16 03:15:15;;;;;;;5.45;2.92;;;;;;;18.47;55.92;100499.63;5093385;28;20102;-59
2022/07/16 03:17:59;;;;;;;6.15;3.17;;;;;;;18.45;55.90;100493.53;5094533;28;20170;-60
2022/07/16 03:20:45;;;;;;;6.88;2.85;;;;;;;18.44;55.79;100493.53;5094850;28;20104;-60
2022/07/16 03:23:29;;;;;;;7.70;3.00;;;;;;;18.43;55.88;100503.19;5094931;28;20043;-59
2022/07/16 03:26:16;;;;;;;;;;;;;;;18.40;55.81;100500.59;5094779;28;20051;-59
2022/07/16 03:29:00;;;;;;;5.32;3.22;;;;;;;18.39;55.85;100511.97;5093559;28;19934;-60
2022/07/16 03:31:44;;;;;;;5.30;2.92;;;;;;;18.38;55.77;100510.22;5094096;28;20097;-59
2022/07/16 03:34:28;;;;;;;7.05;3.50;;;;;;;18.37;55.86;100513.72;5094491;28;20177;-60
2022/07/16 03:37:11;;;;;;;7.97;3.47;;;;;;;18.37;56.11;100511.09;5093990;28;20063;-60
2022/07/16 03:39:55;;;;;;;8.23;3.70;;;;;;;18.35;56.04;100505.88;5094302;28;20085;-59
2022/07/16 03:42:39;;;;;;;10.93;4.10;;;;;;;18.35;55.77;100508.50;5093462;28;20085;-60
2022/07/16 03:45:23;;;;;;;7.10;3.88;;;;;;;18.37;56.14;100511.09;5093980;28;20513;-59
2022/07/16 03:48:07;;;;;;;11.15;3.70;;;;;;;18.37;55.98;100513.72;5094139;28;20042;-60
2022/07/16 03:50:51;;;;;;;11.52;4.85;;;;;;;18.37;56.10;100524.22;5094544;28;20051;-59
2022/07/16 03:53:36;;;;;;;11.80;4.07;;;;;;;18.37;55.96;100526.84;5094330;28;20044;-59
2022/07/16 03:56:21;;;;;;;13.65;4.78;;;;;;;18.37;56.03;100539.97;5093375;28;20051;-58
2022/07/16 03:59:05;;;;;;;16.85;5.55;;;;;;;18.37;55.75;100537.34;5094269;28;20174;-58
2022/07/16 04:01:49;;;;;;;13.55;4.47;;;;;;;18.35;55.91;100532.13;5094014;28;20061;-58
2022/07/16 04:04:33;;;;;;;14.43;5.15;;;;;;;18.37;55.80;100545.22;5093894;28;20521;-58
2022/07/16 04:07:17;;;;;;;19.63;5.90;;;;;;;18.35;55.85;100539.09;5093969;28;20553;-58
2022/07/16 04:10:02;;;;;;;12.15;5.05;;;;;;;18.33;56.34;100541.75;5094061;28;20070;-59
2022/07/16 04:12:46;;;;;;;17.67;5.43;;;;;;;18.33;56.03;100546.13;5093006;28;20067;-58
2022/07/16 04:15:30;;;;;;;13.07;5.97;;;;;;;18.31;56.08;100546.13;5092699;28;20094;-60
2022/07/16 04:18:14;;;;;;;18.45;5.97;;;;;;;18.30;56.17;100552.25;5093616;28;20038;-59
2022/07/16 04:20:58;;;;;;;20.30;7.38;;;;;;;18.28;56.13;100537.44;5093849;28;20572;-59
2022/07/16 04:23:43;;;;;;;14.23;6.25;;;;;;;18.28;56.16;100545.31;5093832;28;20513;-60
2022/07/16 04:26:26;;;;;;;17.08;6.35;;;;;;;18.27;56.17;100544.41;5094054;28;20047;-60
2022/07/16 04:29:10;;;;;;;15.75;6.45;;;;;;;18.27;56.40;100549.66;5092894;28;20092;-59
2022/07/16 04:31:54;;;;;;;17.48;6.40;;;;;;;18.24;56.14;100545.31;5093429;28;20042;-60
2022/07/16 04:34:38;;;;;;;25.52;6.63;;;;;;;18.25;56.23;100551.41;5093328;28;20051;-60
2022/07/16 04:37:22;;;;;;;20.38;5.88;;;;;;;18.23;56.57;100548.81;5093378;28;20059;-60
2022/07/16 04:40:08;;;;;;;21.55;6.78;;;;;;;18.23;55.96;100553.19;5093168;28;20119;-60
2022/07/16 04:42:52;;;;;;;19.85;6.32;;;;;;;18.21;56.38;100550.56;5093807;28;20059;-60
2022/07/16 04:45:38;;;;;;;17.15;6.00;;;;;;;18.21;56.24;100555.81;5092912;28;20051;-60
2022/07/16 04:48:23;;;;;;;15.35;6.40;;;;;;;18.21;56.29;100563.69;5093530;28;20075;-59
2022/07/16 04:51:07;;;;;;;16.75;6.10;;;;;;;18.20;56.53;100566.34;5093714;28;20059;-60
2022/07/16 04:53:50;;;;;;;14.52;5.93;;;;;;;18.18;56.21;100563.72;5093177;28;20051;-60
2022/07/16 04:56:34;;;;;;;15.18;5.45;;;;;;;18.17;56.38;100561.97;5093425;28;20522;-60
2022/07/16 04:59:19;;;;;;;17.35;5.97;;;;;;;18.16;56.39;100564.63;5092997;28;20109;-60
2022/07/16 05:05:07;;;;;;;16.52;5.68;;;;;;;18.12;56.46;100558.53;5093536;28;19919;-60
2022/07/16 05:07:51;;;;;;;17.40;4.95;;;;;;;18.10;56.40;100555.03;5092068;28;20055;-60
2022/07/16 05:10:35;;;;;;;11.68;5.25;;;;;;;18.11;56.53;100557.66;5093274;28;20142;-60
2022/07/16 05:13:20;;;;;;;;;;;;;;;18.10;56.55;100552.41;5092815;28;20116;-59
2022/07/16 05:16:04;;;;;;;11.80;5.10;;;;;;;18.07;56.63;100558.53;5092245;28;19918;-59
2022/07/16 05:18:49;;;;;;;10.45;4.95;;;;;;;18.06;56.69;100548.06;5093011;28;20083;-60
2022/07/16 05:21:33;;;;;;;10.65;4.53;;;;;;;18.07;56.70;100550.66;5091886;28;20082;-60
2022/07/16 05:24:19;;;;;;;12.57;4.93;;;;;;;18.08;56.72;100549.78;5095383;28;20047;-60
2022/07/16 05:27:04;;;;;;;12.23;4.75;;;;;;;18.08;56.84;100555.03;5096024;28;20513;-59
2022/07/16 05:29:48;;;;;;;11.43;4.45;;;;;;;18.08;56.67;100552.41;5097189;28;20090;-58
2022/07/16 05:32:32;;;;;;;14.40;5.20;;;;;;;18.07;56.81;100552.44;5096343;28;20100;-60
2022/07/16 05:35:16;;;;;;;12.95;4.95;;;;;;;18.08;56.84;100549.78;5096050;28;20514;-60
2022/07/16 05:38:00;;;;;;;8.30;4.10;;;;;;;18.07;56.83;100553.28;5095436;28;20067;-60
2022/07/16 05:40:47;;;;;;;12.05;4.88;;;;;;;18.08;56.94;100556.81;5096206;28;20588;-59
2022/07/16 05:43:31;;;;;;;10.10;4.15;;;;;;;18.04;56.72;100561.22;5095832;28;20070;-60
2022/07/16 05:46:16;;;;;;;11.05;4.38;;;;;;;18.06;56.88;100563.81;5096042;28;20089;-60
2022/07/16 05:49:00;;;;;;;12.10;4.43;;;;;;;18.07;57.05;100568.16;5095428;28;20169;-59
2022/07/16 05:51:44;;;;;;;15.07;5.32;;;;;;;18.07;56.95;100570.78;5096013;28;20051;-60
2022/07/16 05:54:28;;;;;;;11.75;3.97;;;;;;;18.07;57.11;100565.53;5096265;28;20051;-60
2022/07/16 05:57:12;;;;;;;7.07;4.07;;;;;;;18.09;57.13;100576.91;5096176;28;20047;-59
2022/07/16 05:59:58;;;;;;;9.18;3.85;;;;;;;18.09;56.92;100577.75;5095834;28;20061;-60
2022/07/16 06:02:45;;;;;;;7.80;3.53;;;;;;;18.09;57.10;100569.03;5095212;28;20461;-59
2022/07/16 06:05:33;;;;;;;8.02;3.72;;;;;;;18.10;57.17;100574.25;5095040;28;20465;-60
2022/07/16 06:08:22;;;;;;;9.70;3.65;;;;;;;18.09;57.02;100574.28;5095286;28;20170;-59
2022/07/16 06:11:06;;;;;;;6.90;3.92;;;;;;;18.09;57.05;100569.88;5095260;28;20169;-59
2022/07/16 06:13:50;;;;;;;6.25;3.88;;;;;;;18.10;57.03;100581.28;5095769;28;20491;-59
2022/07/16 06:16:34;;;;;;;10.00;3.72;;;;;;;18.10;57.08;100578.66;5095995;28;20406;-59
2022/07/16 06:19:18;;;;;;;8.13;4.10;;;;;;;18.10;57.16;100589.13;5096035;28;20453;-60
2022/07/16 06:22:02;;;;;;;8.63;3.80;;;;;;;18.09;57.02;100584.78;5094855;28;20047;-59
2022/07/16 06:24:46;;;;;;;8.10;4.07;;;;;;;18.09;57.14;100587.41;5094440;28;20460;-59
2022/07/16 06:27:33;;;;;;;7.93;4.38;;;;;;;18.08;57.27;100591.75;5095518;28;20189;-60
2022/07/16 06:30:19;;;;;;;7.38;3.92;;;;;;;18.07;57.37;100600.50;5094945;28;20133;-59
2022/07/16 06:33:04;;;;;;;12.93;4.82;;;;;;;18.07;57.09;100603.13;5095502;28;20046;-59
2022/07/16 06:35:47;;;;;;;46.13;8.38;;;;;;;18.06;57.02;100597.91;5094739;28;20043;-59
2022/07/16 06:38:32;;;;;;;10.32;5.03;;;;;;;18.07;57.26;100599.66;5095543;28;20138;-60
2022/07/16 06:41:19;;;;;;;17.55;4.45;;;;;;;18.10;57.36;100604.88;5094531;28;20127;-59
2022/07/16 06:44:09;;;;;;;15.93;5.13;;;;;;;18.12;57.22;100611.00;5094976;28;20047;-60
2022/07/16 06:46:56;;;;;;;12.23;4.68;;;;;;;18.14;57.24;100613.59;5095216;28;20052;-59
2022/07/16 06:49:40;;;;;;;10.52;4.97;;;;;;;18.15;57.42;100613.56;5095456;28;20112;-59
2022/07/16 06:52:27;;;;;;;6.78;4.03;;;;;;;18.16;57.43;100615.31;5094050;28;20098;-60
2022/07/16 06:55:11;;;;;;;10.27;4.45;;;;;;;18.17;57.46;100617.06;5095312;28;20082;-60
2022/07/16 06:57:55;;;;;;;9.23;3.65;;;;;;;18.19;57.59;100617.91;5093987;28;20105;-59
2022/07/16 07:00:39;;;;;;;16.50;4.75;;;;;;;18.20;57.69;100614.41;5094926;28;20086;-59
2022/07/16 07:03:23;;;;;;;9.95;4.80;;;;;;;18.20;57.48;100626.69;5094200;28;20520;-60
2022/07/16 07:06:09;;;;;;;11.25;4.35;;;;;;;18.22;57.66;100630.13;5094036;28;20047;-59
2022/07/16 07:08:53;;;;;;;8.55;3.72;;;;;;;18.24;57.74;100629.25;5094904;28;20117;-59
2022/07/16 07:11:38;;;;;;;8.60;3.95;;;;;;;18.24;57.86;100626.63;5094975;28;20367;-58
2022/07/16 07:14:24;;;;;;;9.88;4.20;;;;;;;18.25;57.98;100630.13;5094052;28;20093;-60
2022/07/16 07:17:08;;;;;;;8.27;3.95;;;;;;;18.29;57.81;100631.00;5093536;28;20106;-58
2022/07/16 07:19:53;;;;;;;9.70;4.22;;;;;;;18.30;57.88;100630.09;5094503;28;20126;-58
2022/07/16 07:22:37;;;;;;;8.85;4.75;;;;;;;18.30;58.05;100641.47;5093835;28;20127;-58
2022/07/16 07:25:21;;;;;;;7.75;4.20;;;;;;;18.31;58.35;100644.94;5094540;28;20070;-58
2022/07/16 07:28:05;;;;;;;8.93;3.90;;;;;;;18.31;58.36;100640.59;5093241;28;20051;-59
2022/07/16 07:30:49;;;;;;;7.10;4.15;;;;;;;18.32;58.24;100644.97;5094225;28;20560;-58
2022/07/16 07:33:33;;;;;;;10.57;4.20;;;;;;;18.33;58.47;100640.56;5094682;28;20063;-58
2022/07/16 07:36:17;;;;;;;8.30;4.45;;;;;;;18.34;58.50;100650.19;5094342;28;20458;-58
2022/07/16 07:39:02;;;;;;;9.55;3.85;;;;;;;18.34;58.46;100653.69;5093040;28;20501;-58
2022/07/16 07:41:46;;;;;;;12.25;4.60;;;;;;;18.35;58.39;100658.06;5094273;28;20134;-59
2022/07/16 07:44:33;;;;;;;12.18;4.40;;;;;;;18.35;58.59;100658.06;5094595;28;20101;-60
2022/07/16 07:47:17;;;;;;;8.25;3.90;;;;;;;18.36;58.62;100658.91;5093520;28;20548;-58
2022/07/16 07:50:04;;;;;;;6.32;4.05;;;;;;;18.36;58.75;100665.06;5094266;28;20062;-58
2022/07/16 07:52:48;;;;;;;6.80;4.45;;;;;;;18.35;58.53;100663.31;5094227;28;20133;-58
2022/07/16 07:55:32;;;;;;;7.88;3.80;;;;;;;18.36;58.31;100665.06;5094432;28;20055;-59
2022/07/16 07:58:17;;;;;;;6.88;3.58;;;;;;;18.37;58.72;100652.78;5094093;28;20112;-58
2022/07/16 08:01:01;;;;;;;6.53;4.03;;;;;;;18.37;58.80;100665.91;5094288;28;20085;-58
2022/07/16 08:03:46;;;;;;;6.38;4.00;;;;;;;18.36;58.93;100659.81;5093210;28;20514;-58
2022/07/16 08:06:29;;;;;;;9.20;4.15;;;;;;;18.38;58.82;100662.41;5093755;28;20089;-58
2022/07/16 08:09:16;;;;;;;9.50;3.72;;;;;;;18.37;58.91;100666.78;5093822;28;20105;-58
2022/07/16 08:12:00;;;;;;;6.72;3.38;;;;;;;18.38;58.91;100668.50;5093888;28;20051;-57
2022/07/16 08:14:44;;;;;;;6.43;3.38;;;;;;;18.40;58.77;100668.53;5093939;28;20556;-58
2022/07/16 08:17:38;;;;;;;6.75;3.45;;;;;;;18.39;58.93;100669.41;5093487;28;20078;-58
2022/07/16 08:20:27;;;;;;;9.70;3.28;;;;;;;18.40;58.93;100673.78;5093786;28;20054;-58
2022/07/16 08:25:44;;;;;;;10.15;4.05;;;;;;;18.40;58.88;100671.16;5094101;28;20442;-59
2022/07/16 08:26:29;;;;;;;7.43;3.30;;;;;;;18.41;59.11;100672.88;5093907;28;20136;-58
2022/07/16 08:29:16;;;;;;;6.40;3.55;;;;;;;18.41;58.99;100679.00;5092197;28;20055;-59
2022/07/16 08:32:06;;;;;;;4.75;2.97;;;;;;;18.41;58.93;100675.50;5093826;28;20399;-58
2022/07/16 08:34:50;;;;;;;5.00;3.30;;;;;;;18.41;58.82;100683.38;5093738;28;20533;-58
2022/07/16 08:37:41;;;;;;;5.57;3.08;;;;;;;18.41;59.17;100681.63;5093265;28;20066;-57
2022/07/16 08:40:31;;;;;;;4.30;3.15;;;;;;;18.44;59.07;100680.75;5092669;28;20051;-58
2022/07/16 08:43:19;;;;;;;9.02;3.30;;;;;;;18.42;59.02;100680.75;5093768;28;20112;-58
2022/07/16 08:46:11;;;;;;;6.45;3.25;;;;;;;18.43;59.24;100681.63;5092778;28;20050;-58
2022/07/16 08:48:58;;;;;;;7.05;2.65;;;;;;;18.43;59.31;100686.88;5093244;28;20047;-58
2022/07/16 08:51:47;;;;;;;4.82;2.67;;;;;;;18.43;59.15;100679.00;5093682;28;20059;-58
2022/07/16 08:54:36;;;;;;;5.65;2.97;;;;;;;18.45;59.21;100684.22;5092516;28;20043;-58
2022/07/16 08:57:22;;;;;;;3.75;2.75;;;;;;;18.45;59.17;100687.72;5092567;28;20593;-58
2022/07/16 09:00:13;;;;;;;9.60;2.90;;;;;;;18.45;59.07;100689.47;5096150;28;20089;-58
2022/07/16 09:02:57;;;;;;;3.75;2.67;;;;;;;18.46;59.26;100683.34;5097099;28;20094;-58
2022/07/16 09:05:41;;;;;;;4.28;2.50;;;;;;;18.45;59.09;100690.34;5097545;28;20043;-58
2022/07/16 09:08:28;;;;;;;3.95;3.15;;;;;;;18.48;59.28;100692.09;5097121;28;20043;-59
2022/07/16 09:11:21;;;;;;;4.13;2.88;;;;;;;18.48;59.13;100697.34;5096283;28;20087;-58
2022/07/16 09:14:16;;;;;;;7.45;2.67;;;;;;;18.47;59.20;100691.19;5096148;28;20051;-58
2022/07/16 09:17:01;;;;;;;9.05;2.50;;;;;;;18.50;59.15;100699.06;5096898;28;20051;-58
2022/07/16 09:19:45;;;;;;;4.47;2.70;;;;;;;18.53;59.16;100693.81;5097240;28;20454;-58
2022/07/16 09:24:56;;;;;;;4.40;2.50;;;;;;;18.55;59.40;100713.03;5111019;27;20249;-58
2022/07/16 09:27:42;;;;;;;5.88;2.75;;;;;;;18.56;59.52;100713.91;5111848;28;20081;-57
2022/07/16 09:30:27;;;;;;;3.67;2.70;;;;;;;18.55;59.29;100712.16;5110351;28;20418;-58
2022/07/16 09:33:18;;;;;;;5.88;2.70;;;;;;;18.58;59.34;100719.16;5110524;28;20185;-58
2022/07/16 09:36:09;;;;;;;4.35;2.55;;;;;;;18.56;59.48;100717.41;5110363;28;20047;-57
2022/07/16 09:38:53;;;;;;;7.22;2.88;;;;;;;18.57;59.19;100713.00;5111268;28;20098;-58
2022/07/16 09:41:43;;;;;;;3.85;2.90;;;;;;;18.58;59.47;100717.38;5110032;28;20089;-57
2022/07/16 09:44:33;;;;;;;6.78;2.65;;;;;;;18.58;59.29;100720.00;5110068;28;20054;-58
2022/07/16 09:47:19;;;;;;;6.00;2.45;;;;;;;18.61;59.26;100721.75;5109986;28;20158;-58
2022/07/16 09:50:03;;;;;;;2.80;2.15;;;;;;;18.65;59.55;100720.84;5110970;28;20059;-60
2022/07/16 09:52:47;;;;;;;2.80;2.30;;;;;;;18.66;59.18;100720.84;5110105;28;20426;-58
2022/07/16 09:55:31;;;;;;;4.22;3.00;;;;;;;18.66;59.35;100717.34;5111019;28;20082;-58
2022/07/16 09:58:20;;;;;;;9.20;3.03;;;;;;;18.66;59.55;100720.84;5109663;28;20409;-58
2022/07/16 10:01:08;;;;;;;6.47;2.58;;;;;;;18.67;59.47;100719.97;5109877;28;20055;-60
2022/07/16 10:03:55;;;;;;;4.80;2.92;;;;;;;18.66;59.35;100718.22;5109899;28;20567;-57
2022/07/16 10:06:44;;;;;;;6.43;2.95;;;;;;;18.68;59.53;100723.44;5109478;28;20051;-59
2022/07/16 10:09:31;;;;;;;8.13;2.95;;;;;;;18.68;59.38;100726.06;5109465;28;20158;-58
2022/07/16 10:12:18;;;;;;;5.20;2.58;;;;;;;18.67;59.38;100727.84;5110423;28;20051;-57
2022/07/16 10:15:08;;;;;;;4.45;2.45;;;;;;;18.67;59.50;100734.84;5109738;28;20043;-58
2022/07/16 10:17:55;;;;;;;4.20;2.63;;;;;;;18.67;59.48;100729.56;5109923;28;20050;-58
2022/07/16 10:20:42;;;;;;;4.35;2.35;;;;;;;18.69;59.38;100733.06;5109992;28;20051;-60
2022/07/16 10:23:30;;;;;;;4.03;2.22;;;;;;;18.67;59.64;100737.47;5109252;28;20054;-58
2022/07/16 10:26:20;;;;;;;4.22;2.85;;;;;;;18.66;59.56;100735.72;5109592;28;20075;-58
2022/07/16 10:29:10;;;;;;;4.28;2.50;;;;;;;18.66;59.55;100733.09;5109163;28;20047;-58
2022/07/16 10:35:46;;;;;;;2.95;2.38;;;;;;;18.68;59.53;100728.69;5103573;28;20058;-58
2022/07/16 10:38:33;;;;;;;4.25;2.92;;;;;;;18.71;59.51;100733.94;5095172;28;20051;-58
2022/07/16 10:41:22;;;;;;;6.90;2.38;;;;;;;18.72;59.36;100733.06;5096261;28;20059;-59
2022/07/16 10:44:15;;;;;;;4.68;2.10;;;;;;;18.73;59.26;100737.44;5095131;28;20104;-59
2022/07/16 10:47:06;;;;;;;5.55;2.83;;;;;;;18.76;59.54;100740.03;5095338;28;20055;-59
2022/07/16 10:50:28;;;;;;;4.50;2.53;;;;;;;18.77;59.50;100739.13;5095024;28;20074;-59
2022/07/16 10:53:15;;;;;;;6.15;2.17;;;;;;;18.76;59.53;100745.28;5095253;28;20070;-59
2022/07/16 10:56:33;;;;;;;6.75;2.83;;;;;;;18.76;59.37;100745.28;5095012;28;20047;-59
2022/07/16 10:59:29;;;;;;;5.05;2.58;;;;;;;18.78;59.48;100758.41;5095283;28;20146;-59
2022/07/16 11:02:27;;;;;;;3.60;2.20;;;;;;;18.77;59.61;100751.41;5095787;28;20050;-59
2022/07/16 11:05:19;;;;;;;5.43;2.20;;;;;;;18.78;59.28;100751.38;5095444;28;20043;-59
2022/07/16 11:08:13;;;;;;;6.55;2.38;;;;;;;18.78;59.49;100746.13;5094879;28;20573;-59
2022/07/16 11:10:57;;;;;;;3.38;2.00;;;;;;;18.79;59.48;100742.63;5095149;28;20131;-59
2022/07/16 11:13:47;;;;;;;2.38;2.13;;;;;;;18.79;59.23;100741.75;5094927;28;20097;-60
2022/07/16 11:16:31;;;;;;;3.83;1.95;;;;;;;18.79;59.37;100747.88;5095121;28;20131;-59
2022/07/16 11:19:21;;;;;;;3.83;2.00;;;;;;;18.80;59.25;100749.63;5094353;28;20101;-59
2022/07/16 11:22:06;;;;;;;3.80;2.10;;;;;;;18.81;59.30;100742.63;5094837;28;20042;-60
2022/07/16 11:24:58;;;;;;;4.93;2.10;;;;;;;18.80;59.25;100748.75;5094914;28;20186;-59
2022/07/16 11:27:42;;;;;;;4.60;2.08;;;;;;;18.81;59.26;100754.00;5094666;28;20043;-59
2022/07/16 11:30:29;;;;;;;2.80;1.50;;;;;;;18.81;58.98;100751.38;5095630;28;20097;-60
2022/07/16 11:33:30;;;;;;;3.63;1.83;;;;;;;18.81;58.93;100751.38;5094041;28;20538;-59
2022/07/16 11:36:14;;;;;;;2.28;1.90;;;;;;;18.80;59.14;100752.25;5095208;28;20047;-58
2022/07/16 11:39:05;;;;;;;10.13;1.92;;;;;;;18.80;59.07;100754.88;5094789;28;20074;-60
2022/07/16 11:41:53;;;;;;;1.73;1.48;;;;;;;18.79;58.96;100755.75;5094726;28;20100;-59
2022/07/16 11:44:41;;;;;;;3.35;1.80;;;;;;;18.82;58.60;100750.47;5093734;28;20046;-58
2022/07/16 11:47:25;;;;;;;1.98;1.73;;;;;;;18.83;58.78;100756.63;5092898;28;20625;-58
2022/07/16 11:50:09;;;;;;;1.73;1.42;;;;;;;18.85;58.78;100760.97;5095456;28;20055;-57
2022/07/16 11:52:53;;;;;;;3.90;1.75;;;;;;;18.88;58.49;100757.44;5094946;28;20043;-58
2022/07/16 11:55:42;;;;;;;4.07;1.58;;;;;;;18.86;58.76;100761.81;5094525;28;20071;-60
2022/07/16 11:58:26;;;;;;;2.40;1.55;;;;;;;18.88;58.47;100762.69;5094066;28;20059;-58
2022/07/16 12:01:10;;;;;;;3.63;1.60;;;;;;;18.89;58.54;100750.44;5094849;28;20043;-58
2022/07/16 12:03:57;;;;;;;1.92;1.30;;;;;;;18.87;58.36;100750.44;5094422;28;20418;-58
2022/07/16 12:06:47;;;;;;;3.42;1.83;;;;;;;18.87;58.28;100753.97;5094289;28;20127;-57
2022/07/16 12:09:37;;;;;;;2.60;1.63;;;;;;;18.87;58.01;100748.69;5094597;28;20177;-58
2022/07/16 12:12:27;;;;;;;2.80;1.80;;;;;;;18.89;58.21;100751.31;5093933;28;20181;-58
2022/07/16 12:15:13;;;;;;;2.33;1.50;;;;;;;18.87;58.14;100751.31;5093761;28;20051;-58
2022/07/16 12:18:11;;;;;;;4.38;1.65;;;;;;;18.89;58.03;100753.94;5093554;28;20475;-58
2022/07/16 12:21:37;;;;;;;2.65;1.83;;;;;;;18.89;58.00;100766.22;5093763;28;20135;-59
2022/07/16 12:24:28;;;;;;;1.60;1.30;;;;;;;18.89;58.10;100764.44;5094313;28;20174;-58
2022/07/16 12:27:12;;;;;;;1.98;1.50;;;;;;;18.90;57.80;100762.69;5093926;28;20423;-60
2022/07/16 12:30:07;;;;;;;2.58;1.67;;;;;;;18.90;57.78;100770.59;5094464;28;20106;-59
2022/07/16 12:32:52;;;;;;;1.60;1.50;;;;;;;18.91;57.66;100774.94;5093572;28;20055;-59
2022/07/16 12:35:56;;;;;;;2.47;1.58;;;;;;;18.91;57.54;100769.69;5093749;28;20101;-59
2022/07/16 12:39:02;;;;;;;3.45;1.60;;;;;;;18.89;57.67;100766.22;5092951;28;20062;-59
2022/07/16 12:41:49;;;;;;;4.00;1.38;;;;;;;18.89;57.32;100763.59;5094078;28;20097;-59
2022/07/16 12:44:34;;;;;;;3.35;1.88;;;;;;;18.90;57.35;100770.59;5093078;28;20101;-59
2022/07/16 12:47:18;;;;;;;5.22;1.50;;;;;;;18.90;57.04;100773.19;5094199;28;20079;-59
2022/07/16 12:50:05;;;;;;;1.67;1.55;;;;;;;18.87;57.34;100772.34;5094044;28;20517;-59
2022/07/16 12:52:57;;;;;;;5.30;1.83;;;;;;;18.86;57.48;100770.59;5092869;28;20114;-59
2022/07/16 12:58:47;;;;;;;2.35;1.63;;;;;;;18.87;56.92;100771.44;5093610;28;20086;-60
2022/07/16 13:01:32;;;;;;;4.57;2.25;;;;;;;18.89;56.64;100781.97;5092997;28;20047;-59
2022/07/16 13:04:24;;;;;;;3.47;1.75;;;;;;;18.89;56.91;100774.94;5093298;28;20113;-60
2022/07/16 13:07:09;;;;;;;2.78;1.50;;;;;;;18.90;57.11;100775.84;5093755;28;20518;-59
2022/07/16 13:09:53;;;;;;;4.53;1.85;;;;;;;18.92;56.80;100776.69;5094349;28;20079;-60